createdAt,value
2022-11-27T00:00:19.258Z,31.52
2022-11-27T00:05:19.945Z,37.33
2022-11-27T00:10:20.758Z,26.62
2022-11-27T00:15:21.891Z,31.33
2022-11-27T00:20:26.072Z,28.65
2022-11-27T00:25:29.714Z,21.23
2022-11-27T00:30:30.474Z,25.80
2022-11-27T00:35:31.189Z,32.13
2022-11-27T00:40:31.960Z,26.62
2022-11-27T00:45:32.741Z,25.05
2022-11-27T00:50:33.508Z,33.78
2022-11-27T00:55:34.450Z,32.45
2022-11-27T01:00:35.178Z,30.40
2022-11-27T01:05:36.638Z,25.08
2022-11-27T01:10:38.890Z,34.45
2022-11-27T01:15:39.740Z,33.00
2022-11-27T01:20:40.489Z,33.72
2022-11-27T01:25:41.689Z,32.40
2022-11-27T01:30:42.396Z,37.25
2022-11-27T01:35:51.799Z,37.58
2022-11-27T01:40:57.977Z,34.28
2022-11-27T01:45:58.985Z,34.63
2022-11-27T01:50:59.784Z,36.70
2022-11-27T01:56:01.235Z,38.05
2022-11-27T02:01:03.127Z,37.20
2022-11-27T02:06:04.077Z,39.55
2022-11-27T02:11:18.320Z,42.88
2022-11-27T02:16:43.500Z,40.35
2022-11-27T02:21:57.716Z,23.95
2022-11-27T02:30:10.004Z,30.48
2022-11-27T02:35:29.453Z,32.17
2022-11-27T02:41:08.602Z,35.53
2022-11-27T02:46:12.213Z,39.63
2022-11-27T02:51:16.670Z,41.03
2022-11-27T02:56:21.584Z,39.67
2022-11-27T03:01:23.886Z,46.22
2022-11-27T03:06:31.280Z,34.65
2022-11-27T03:11:32.243Z,44.17
2022-11-27T03:17:00.811Z,36.75
2022-11-27T03:22:03.660Z,34.53
2022-11-27T03:27:04.950Z,54.90
2022-11-27T03:32:06.671Z,40.65
2022-11-27T03:37:07.680Z,50.65
2022-11-27T03:42:25.292Z,47.92
2022-11-27T03:48:21.621Z,51.13
2022-11-27T03:53:55.240Z,47.55
2022-11-27T04:04:02.699Z,53.85
2022-11-27T04:09:04.555Z,52.00
2022-11-27T04:14:05.400Z,55.22
2022-11-27T04:19:07.411Z,59.53
2022-11-27T04:24:08.133Z,50.72
2022-11-27T04:29:08.956Z,41.83
2022-11-27T04:34:10.114Z,42.95
2022-11-27T04:39:12.569Z,47.72
2022-11-27T04:44:13.375Z,44.57
2022-11-27T04:49:14.352Z,44.53
2022-11-27T04:54:15.206Z,50.88
2022-11-27T04:59:16.022Z,60.50
2022-11-27T05:04:16.978Z,57.38
2022-11-27T05:09:17.946Z,57.13
2022-11-27T05:14:19.943Z,70.62
2022-11-27T05:19:23.075Z,66.60
2022-11-27T05:24:27.001Z,67.72
2022-11-27T05:29:28.848Z,56.33
2022-11-27T05:34:29.774Z,71.57
2022-11-27T05:39:30.520Z,87.97
2022-11-27T05:44:31.276Z,93.62
2022-11-27T05:49:32.046Z,90.22
2022-11-27T05:54:32.795Z,97.70
2022-11-27T05:59:33.558Z,97.68
2022-11-27T06:04:34.441Z,91.30
2022-11-27T06:09:37.180Z,121.37
2022-11-27T06:14:38.230Z,108.35
2022-11-27T06:19:39.138Z,129.00
2022-11-27T06:24:40.282Z,98.32
2022-11-27T06:29:41.257Z,92.47
2022-11-27T06:34:42.437Z,91.80
2022-11-27T06:39:43.577Z,325.45
2022-11-27T06:44:46.030Z,225.40
2022-11-27T06:49:46.740Z,122.50
2022-11-27T06:54:47.543Z,407.80
2022-11-27T06:59:48.308Z,394.08
2022-11-27T07:04:49.176Z,463.90
2022-11-27T07:09:49.874Z,363.30
2022-11-27T07:14:50.632Z,519.35
2022-11-27T07:19:51.334Z,116.70
2022-11-27T07:24:52.081Z,424.40
2022-11-27T07:29:52.786Z,443.05
2022-11-27T07:34:53.915Z,218.98
2022-11-27T07:40:02.480Z,196.95
2022-11-27T07:45:05.014Z,181.90
2022-11-27T07:50:09.866Z,116.03
2022-11-27T07:55:13.583Z,113.57
2022-11-27T08:00:15.357Z,103.65
2022-11-27T08:05:16.459Z,89.05
2022-11-27T08:10:17.494Z,86.63
2022-11-27T08:15:18.730Z,70.35
2022-11-27T08:20:20.044Z,65.68
2022-11-27T08:25:20.884Z,65.97
2022-11-27T08:30:22.918Z,73.25
2022-11-27T08:35:23.765Z,75.00
2022-11-27T08:40:24.954Z,76.18
2022-11-27T08:45:25.758Z,70.60
2022-11-27T08:50:26.808Z,71.53
2022-11-27T08:55:27.552Z,67.90
2022-11-27T09:00:28.535Z,70.30
2022-11-27T09:05:30.323Z,71.18
2022-11-27T09:10:31.594Z,63.87
2022-11-27T09:15:32.523Z,56.35
2022-11-27T09:20:33.252Z,53.33
2022-11-27T09:25:34.041Z,68.10
2022-11-27T09:30:34.748Z,63.67
2022-11-27T09:35:38.827Z,68.53
2022-11-27T09:41:04.730Z,66.55
2022-11-27T09:46:13.965Z,74.50
2022-11-27T09:51:25.184Z,66.70
2022-11-27T09:56:25.994Z,68.95
2022-11-27T10:01:36.594Z,78.40
2022-11-27T10:07:25.499Z,73.53
2022-11-27T10:13:02.036Z,63.25
2022-11-27T10:18:12.490Z,50.30
2022-11-27T10:23:39.034Z,41.05
2022-11-27T10:32:46.988Z,41.67
2022-11-27T10:38:16.045Z,43.05
2022-11-27T10:43:22.664Z,41.03
2022-11-27T10:48:23.821Z,42.03
2022-11-27T10:53:35.698Z,36.08
2022-11-27T10:58:45.540Z,38.08
2022-11-27T11:03:46.694Z,35.90
2022-11-27T11:08:48.769Z,33.53
2022-11-27T11:13:49.683Z,38.00
2022-11-27T11:18:53.353Z,38.40
2022-11-27T11:24:43.224Z,74.57
2022-11-27T11:29:51.686Z,35.25
2022-11-27T11:35:07.733Z,33.92
2022-11-27T11:40:26.213Z,32.22
2022-11-27T11:45:32.654Z,36.50
2022-11-27T11:51:38.353Z,47.75
2022-11-27T11:56:51.453Z,41.60
2022-11-27T12:05:26.499Z,33.22
2022-11-27T12:15:34.908Z,30.40
2022-11-27T12:21:50.685Z,30.12
2022-11-27T12:27:23.742Z,32.08
2022-11-27T12:32:51.891Z,29.55
2022-11-27T12:40:25.765Z,29.95
2022-11-27T12:46:00.863Z,30.60
2022-11-27T12:51:18.545Z,39.28
2022-11-27T12:56:38.470Z,37.53
2022-11-27T13:01:44.988Z,35.63
2022-11-27T13:07:17.497Z,36.25
2022-11-27T13:12:26.371Z,35.55
2022-11-27T13:17:36.367Z,31.35
2022-11-27T13:22:37.343Z,36.45
2022-11-27T13:27:38.764Z,37.97
2022-11-27T13:32:47.165Z,41.25
2022-11-27T13:37:55.703Z,35.83
2022-11-27T13:43:11.725Z,40.55
2022-11-27T13:48:34.702Z,37.58
2022-11-27T13:53:39.722Z,39.63
2022-11-27T13:58:42.852Z,44.78
2022-11-27T14:03:44.807Z,44.55
2022-11-27T14:09:04.116Z,55.55
2022-11-27T14:14:21.735Z,57.92
2022-11-27T14:19:33.533Z,53.78
2022-11-27T14:24:41.250Z,62.87
2022-11-27T14:29:44.828Z,65.22
2022-11-27T14:34:50.154Z,62.30
2022-11-27T14:39:52.309Z,64.95
2022-11-27T14:45:11.733Z,84.18
2022-11-27T14:50:14.382Z,76.72
2022-11-27T14:55:18.430Z,73.50
2022-11-27T15:00:26.837Z,70.65
2022-11-27T15:05:29.245Z,63.78
2022-11-27T15:10:39.810Z,58.87
2022-11-27T15:15:43.649Z,61.80
2022-11-27T15:20:46.731Z,62.67
2022-11-27T15:26:14.987Z,55.30
2022-11-27T15:31:37.967Z,55.40
2022-11-27T15:36:41.947Z,61.97
2022-11-27T15:41:51.279Z,57.85
2022-11-27T15:46:55.930Z,62.25
2022-11-27T15:51:57.883Z,58.33
2022-11-27T15:56:58.744Z,58.90
2022-11-27T16:02:00.349Z,60.42
2022-11-27T16:07:01.212Z,55.53
2022-11-27T16:12:02.895Z,62.53
2022-11-27T16:17:03.730Z,61.20
2022-11-27T16:22:04.592Z,57.10
2022-11-27T16:27:06.578Z,57.38
2022-11-27T16:32:07.770Z,55.42
2022-11-27T16:37:12.073Z,51.63
2022-11-27T16:42:15.186Z,49.95
2022-11-27T16:47:16.402Z,51.20
2022-11-27T16:52:17.359Z,46.00
2022-11-27T16:57:19.307Z,38.97
2022-11-27T17:02:20.693Z,47.72
2022-11-27T17:07:21.522Z,40.70
2022-11-27T17:12:22.580Z,57.28
2022-11-27T17:17:23.368Z,81.75
2022-11-27T17:22:29.530Z,47.55
2022-11-27T17:27:31.770Z,37.35
2022-11-27T17:32:32.531Z,41.20
2022-11-27T17:37:33.346Z,40.50
2022-11-27T17:42:34.088Z,42.67
2022-11-27T17:47:34.867Z,31.33
2022-11-27T17:52:36.784Z,40.97
2022-11-27T17:57:37.775Z,38.58
2022-11-27T18:02:40.130Z,31.98
2022-11-27T18:07:42.909Z,34.50
2022-11-27T18:12:44.147Z,36.80
2022-11-27T18:17:45.046Z,34.42
2022-11-27T18:22:45.865Z,36.30
2022-11-27T18:27:46.863Z,37.03
2022-11-27T18:32:47.616Z,34.95
2022-11-27T18:37:48.480Z,39.72
2022-11-27T18:42:49.239Z,39.33
2022-11-27T18:47:50.379Z,44.28
2022-11-27T18:52:51.200Z,38.90
2022-11-27T18:57:52.462Z,38.55
2022-11-27T19:02:53.780Z,41.97
2022-11-27T19:07:54.684Z,36.97
2022-11-27T19:12:55.519Z,44.92
2022-11-27T19:17:57.480Z,55.83
2022-11-27T19:22:58.321Z,37.05
2022-11-27T19:27:59.158Z,42.62
2022-11-27T19:32:59.911Z,43.60
2022-11-27T19:38:01.588Z,37.28
2022-11-27T19:43:02.465Z,44.17
2022-11-27T19:48:03.345Z,45.12
2022-11-27T19:53:04.578Z,39.85
2022-11-27T19:58:06.278Z,45.95
2022-11-27T20:03:07.045Z,42.47
2022-11-27T20:08:08.090Z,41.90
2022-11-27T20:13:08.847Z,44.63
2022-11-27T20:18:09.695Z,42.40
2022-11-27T20:23:11.651Z,42.75
2022-11-27T20:28:12.369Z,46.17
2022-11-27T20:33:16.848Z,39.13
2022-11-27T20:38:17.605Z,44.30
2022-11-27T20:43:18.636Z,41.00
2022-11-27T20:48:19.533Z,37.05
2022-11-27T20:53:20.417Z,37.45
2022-11-27T20:58:23.000Z,42.60
2022-11-27T21:03:23.814Z,42.90
2022-11-27T21:08:24.877Z,36.20
2022-11-27T21:13:25.930Z,37.55
2022-11-27T21:18:26.876Z,36.17
2022-11-27T21:23:27.713Z,37.47
2022-11-27T21:28:29.760Z,35.85
2022-11-27T21:33:30.511Z,35.13
2022-11-27T21:38:31.284Z,35.08
2022-11-27T21:43:32.021Z,35.20
2022-11-27T21:48:32.846Z,32.42
2022-11-27T21:53:33.700Z,32.22
2022-11-27T21:58:36.550Z,31.33
2022-11-27T22:03:42.311Z,29.73
2022-11-27T22:08:46.281Z,30.98
2022-11-27T22:13:47.263Z,25.20
2022-11-27T22:18:48.858Z,29.05
2022-11-27T22:23:50.260Z,29.02
2022-11-27T22:28:51.913Z,26.85
2022-11-27T22:33:53.915Z,28.70
2022-11-27T22:38:56.210Z,28.02
2022-11-27T22:43:59.482Z,30.15
2022-11-27T22:49:04.054Z,29.85
2022-11-27T22:54:06.505Z,27.42
2022-11-27T23:04:39.016Z,27.30
2022-11-27T23:09:39.978Z,30.77
2022-11-27T23:14:41.299Z,28.08
2022-11-27T23:19:42.301Z,25.00
2022-11-27T23:24:43.672Z,26.42
2022-11-27T23:29:44.794Z,25.02
2022-11-27T23:34:45.733Z,29.83
2022-11-27T23:39:46.467Z,23.48
2022-11-27T23:44:47.219Z,25.83
2022-11-27T23:49:47.961Z,29.55
2022-11-27T23:54:48.921Z,24.80
2022-11-27T23:59:49.683Z,22.00
